createdAt,value
2017-10-05T00:00:12.500Z,41.55
2017-10-05T00:01:21.193Z,41.84
2017-10-05T00:02:30.532Z,41.65
2017-10-05T00:03:39.545Z,41.36
2017-10-05T00:04:49.196Z,41.46
2017-10-05T00:05:58.533Z,41.94
2017-10-05T00:07:07.548Z,41.55
2017-10-05T00:08:16.245Z,41.65
2017-10-05T00:09:24.941Z,41.65
2017-10-05T00:10:33.952Z,41.94
2017-10-05T00:11:42.649Z,41.65
2017-10-05T00:12:51.688Z,41.65
2017-10-05T00:14:01.024Z,41.75
2017-10-05T00:15:10.355Z,41.65
2017-10-05T00:16:20.014Z,41.65
2017-10-05T00:17:29.353Z,41.65
2017-10-05T00:18:38.044Z,41.65
2017-10-05T00:19:47.371Z,41.55
2017-10-05T00:20:56.064Z,41.65
2017-10-05T00:22:05.395Z,41.84
2017-10-05T00:23:14.089Z,41.65
2017-10-05T00:24:23.108Z,41.55
2017-10-05T00:25:32.437Z,41.65
2017-10-05T00:26:42.413Z,41.55
2017-10-05T00:27:51.103Z,41.84
2017-10-05T00:29:00.439Z,42.03
2017-10-05T00:30:10.405Z,41.65
2017-10-05T00:31:38.942Z,41.84
2017-10-05T00:32:48.277Z,41.55
2017-10-05T00:33:57.948Z,41.94
2017-10-05T00:35:07.287Z,41.75
2017-10-05T00:36:16.615Z,41.75
2017-10-05T00:37:26.268Z,41.84
2017-10-05T00:38:35.920Z,42.03
2017-10-05T00:39:45.251Z,41.75
2017-10-05T00:40:54.588Z,41.65
2017-10-05T00:42:03.280Z,41.75
2017-10-05T00:43:12.932Z,41.75
2017-10-05T00:44:22.586Z,41.84
2017-10-05T00:45:31.610Z,41.75
2017-10-05T00:46:41.593Z,41.75
2017-10-05T00:47:50.606Z,41.94
2017-10-05T00:48:59.616Z,41.75
2017-10-05T00:50:08.637Z,41.75
2017-10-05T00:51:17.651Z,41.94
2017-10-05T00:52:26.341Z,41.65
2017-10-05T00:53:35.032Z,41.55
2017-10-05T00:54:44.046Z,41.65
2017-10-05T00:55:53.378Z,41.65
2017-10-05T00:57:02.076Z,41.65
2017-10-05T00:58:11.412Z,41.65
2017-10-05T00:59:20.429Z,41.65
2017-10-05T01:00:29.454Z,41.55
2017-10-05T01:01:38.788Z,41.75
2017-10-05T01:02:48.119Z,41.94
2017-10-05T01:03:56.818Z,41.75
2017-10-05T01:05:06.482Z,41.53
2017-10-05T01:06:15.819Z,42.02
2017-10-05T01:07:24.831Z,41.84
2017-10-05T01:08:33.843Z,41.53
2017-10-05T01:09:42.859Z,41.72
2017-10-05T01:10:52.520Z,41.75
2017-10-05T01:12:01.215Z,41.75
2017-10-05T01:13:10.893Z,41.63
2017-10-05T01:14:20.553Z,41.63
2017-10-05T01:15:29.250Z,41.72
2017-10-05T01:16:38.579Z,41.55
2017-10-05T01:17:47.601Z,42.02
2017-10-05T01:18:57.257Z,41.63
2017-10-05T01:20:06.908Z,41.63
2017-10-05T01:21:15.926Z,41.82
2017-10-05T01:22:25.892Z,41.72
2017-10-05T01:23:35.549Z,41.75
2017-10-05T01:24:44.244Z,41.63
2017-10-05T01:25:53.575Z,41.72
2017-10-05T01:27:02.269Z,41.92
2017-10-05T01:28:11.614Z,41.72
2017-10-05T01:29:20.950Z,41.63
2017-10-05T01:30:30.286Z,41.72
2017-10-05T01:31:39.296Z,41.72
2017-10-05T01:32:47.993Z,41.72
2017-10-05T01:33:57.011Z,41.63
2017-10-05T01:35:06.021Z,41.92
2017-10-05T01:36:15.356Z,41.63
2017-10-05T01:37:25.005Z,42.02
2017-10-05T01:38:34.344Z,41.82
2017-10-05T01:39:43.678Z,41.92
2017-10-05T01:40:53.019Z,41.82
2017-10-05T01:42:02.984Z,41.72
2017-10-05T01:43:12.962Z,41.72
2017-10-05T01:44:21.654Z,41.92
2017-10-05T01:45:30.349Z,41.72
2017-10-05T01:46:39.364Z,41.72
2017-10-05T01:47:48.707Z,41.63
2017-10-05T01:48:58.996Z,41.63
2017-10-05T01:50:08.017Z,41.63
2017-10-05T01:51:17.680Z,41.63
2017-10-05T01:52:26.696Z,41.72
2017-10-05T01:53:36.035Z,41.63
2017-10-05T01:54:45.393Z,41.72
2017-10-05T01:55:54.723Z,41.53
2017-10-05T01:57:03.417Z,41.63
2017-10-05T01:58:12.108Z,41.34
2017-10-05T01:59:21.122Z,41.63
2017-10-05T02:00:30.137Z,41.72
2017-10-05T02:01:39.476Z,41.53
2017-10-05T02:02:48.496Z,41.63
2017-10-05T02:03:57.823Z,41.92
2017-10-05T02:05:07.158Z,41.53
2017-10-05T02:06:16.803Z,41.63
2017-10-05T02:07:26.137Z,41.82
2017-10-05T02:08:35.477Z,41.63
2017-10-05T02:09:44.817Z,41.72
2017-10-05T02:10:54.470Z,41.63
2017-10-05T02:12:03.486Z,41.72
2017-10-05T02:13:12.815Z,41.82
2017-10-05T02:14:22.142Z,41.72
2017-10-05T02:15:30.836Z,41.63
2017-10-05T02:16:39.530Z,41.82
2017-10-05T02:17:48.862Z,41.72
2017-10-05T02:18:57.878Z,41.72
2017-10-05T02:20:07.531Z,41.72
2017-10-05T02:21:16.227Z,41.92
2017-10-05T02:22:25.565Z,41.63
2017-10-05T02:23:34.902Z,41.72
2017-10-05T02:24:43.595Z,41.72
2017-10-05T02:25:52.611Z,41.63
2017-10-05T02:27:01.942Z,41.63
2017-10-05T02:28:10.635Z,41.63
2017-10-05T02:29:19.329Z,41.82
2017-10-05T02:30:28.022Z,42.02
2017-10-05T02:31:36.715Z,41.82
2017-10-05T02:32:46.370Z,41.72
2017-10-05T02:33:55.387Z,41.72
2017-10-05T02:35:04.718Z,41.53
2017-10-05T02:36:14.053Z,41.63
2017-10-05T02:37:22.759Z,41.63
2017-10-05T02:38:32.099Z,41.92
2017-10-05T02:39:41.111Z,41.63
2017-10-05T02:40:50.442Z,41.92
2017-10-05T02:41:59.458Z,41.82
2017-10-05T02:43:08.470Z,41.72
2017-10-05T02:44:18.118Z,41.63
2017-10-05T02:45:27.455Z,41.72
2017-10-05T02:46:37.112Z,41.82
2017-10-05T02:47:46.446Z,41.63
2017-10-05T02:48:55.779Z,41.53
2017-10-05T02:50:04.794Z,41.92
2017-10-05T02:51:14.444Z,41.63
2017-10-05T02:52:24.103Z,41.92
2017-10-05T02:53:32.794Z,41.53
2017-10-05T02:54:42.452Z,41.63
2017-10-05T02:55:51.472Z,41.72
2017-10-05T02:57:00.488Z,41.92
2017-10-05T02:58:09.822Z,41.63
2017-10-05T02:59:18.827Z,41.53
2017-10-05T03:00:28.157Z,41.72
2017-10-05T03:01:37.169Z,41.63
2017-10-05T03:02:46.190Z,41.72
2017-10-05T03:03:54.884Z,41.63
2017-10-05T03:05:03.901Z,41.72
2017-10-05T03:06:12.918Z,41.72
2017-10-05T03:07:21.933Z,41.63
2017-10-05T03:08:31.269Z,41.72
2017-10-05T03:09:40.599Z,41.72
2017-10-05T03:10:49.612Z,41.63
2017-10-05T03:11:58.946Z,41.63
2017-10-05T03:13:07.637Z,41.92
2017-10-05T03:14:16.658Z,41.72
2017-10-05T03:15:25.351Z,41.72
2017-10-05T03:16:34.370Z,41.63
2017-10-05T03:17:43.063Z,41.53
2017-10-05T03:18:52.078Z,41.72
2017-10-05T03:20:00.774Z,41.63
2017-10-05T03:21:09.785Z,41.53
2017-10-05T03:22:18.801Z,41.63
2017-10-05T03:23:27.815Z,41.82
2017-10-05T03:24:37.787Z,41.63
2017-10-05T03:25:46.797Z,41.72
2017-10-05T03:26:55.496Z,41.63
2017-10-05T03:28:04.827Z,41.72
2017-10-05T03:29:14.796Z,41.63
2017-10-05T03:30:23.811Z,41.63
2017-10-05T03:31:33.146Z,41.24
2017-10-05T03:32:42.480Z,41.72
2017-10-05T03:33:51.499Z,41.89
2017-10-05T03:35:00.512Z,41.53
2017-10-05T03:36:10.172Z,41.63
2017-10-05T03:37:19.195Z,41.61
2017-10-05T03:38:28.845Z,41.34
2017-10-05T03:39:38.536Z,41.72
2017-10-05T03:40:48.193Z,41.53
2017-10-05T03:41:57.531Z,41.53
2017-10-05T03:43:06.545Z,41.72
2017-10-05T03:44:16.199Z,42.02
2017-10-05T03:45:25.526Z,41.72
2017-10-05T03:46:35.178Z,41.44
2017-10-05T03:47:43.871Z,41.63
2017-10-05T03:48:53.203Z,41.63
2017-10-05T03:50:02.545Z,42.11
2017-10-05T03:51:12.209Z,41.61
2017-10-05T03:52:21.227Z,41.63
2017-10-05T03:53:30.884Z,41.53
2017-10-05T03:54:40.220Z,41.63
2017-10-05T03:55:49.234Z,41.63
2017-10-05T03:56:58.251Z,41.63
2017-10-05T03:58:07.274Z,41.72
2017-10-05T03:59:16.607Z,41.53
2017-10-05T04:00:25.939Z,42.02
2017-10-05T04:01:34.952Z,41.53
2017-10-05T04:02:45.249Z,41.92
2017-10-05T04:03:54.905Z,41.89
2017-10-05T04:05:04.240Z,41.92
2017-10-05T04:06:13.267Z,41.92
2017-10-05T04:07:22.285Z,41.92
2017-10-05T04:08:31.303Z,41.53
2017-10-05T04:09:40.314Z,41.99
2017-10-05T04:10:49.330Z,41.82
2017-10-05T04:11:58.025Z,41.53
2017-10-05T04:13:07.041Z,42.02
2017-10-05T04:14:16.375Z,41.63
2017-10-05T04:15:25.387Z,41.92
2017-10-05T04:16:34.079Z,41.82
2017-10-05T04:17:43.412Z,41.92
2017-10-05T04:18:52.430Z,41.92
2017-10-05T04:20:01.443Z,41.82
2017-10-05T04:21:10.777Z,41.63
2017-10-05T04:22:19.791Z,41.63
2017-10-05T04:23:29.438Z,41.63
2017-10-05T04:24:39.096Z,41.63
2017-10-05T04:25:47.788Z,41.72
2017-10-05T04:26:56.481Z,41.82
2017-10-05T04:28:05.495Z,41.92
2017-10-05T04:29:14.833Z,42.11
2017-10-05T04:30:23.852Z,42.3
2017-10-05T04:31:32.867Z,42.11
2017-10-05T04:32:41.558Z,42.11
2017-10-05T04:33:50.891Z,42.11
2017-10-05T04:34:59.588Z,42.21
2017-10-05T04:36:08.599Z,42.4
2017-10-05T04:37:17.925Z,42.21
2017-10-05T04:38:27.585Z,42.49
2017-10-05T04:39:36.925Z,42.21
2017-10-05T04:40:46.578Z,42.49
2017-10-05T04:41:55.590Z,42.3
2017-10-05T04:43:04.286Z,42.59
2017-10-05T04:44:12.984Z,42.49
2017-10-05T04:45:21.996Z,42.49
2017-10-05T04:46:31.007Z,42.59
2017-10-05T04:47:40.338Z,42.49
2017-10-05T04:48:49.671Z,42.59
2017-10-05T04:49:58.366Z,42.4
2017-10-05T04:51:07.704Z,42.4
2017-10-05T04:52:17.043Z,42.4
2017-10-05T04:53:26.373Z,42.4
2017-10-05T04:54:36.026Z,42.4
2017-10-05T04:55:45.044Z,43.07
2017-10-05T04:56:54.055Z,42.59
2017-10-05T04:58:03.392Z,42.49
2017-10-05T04:59:12.406Z,42.4
2017-10-05T05:00:21.419Z,42.21
2017-10-05T05:01:31.065Z,42.79
2017-10-05T05:02:40.076Z,42.69
2017-10-05T05:03:49.090Z,42.69
2017-10-05T05:04:58.426Z,42.69
2017-10-05T05:06:07.445Z,42.59
2017-10-05T05:07:16.778Z,42.79
2017-10-05T05:08:25.473Z,42.79
2017-10-05T05:09:34.488Z,42.3
2017-10-05T05:10:44.142Z,42.4
2017-10-05T05:11:53.157Z,42.4
2017-10-05T05:13:02.174Z,42.4
2017-10-05T05:14:11.830Z,42.59
2017-10-05T05:15:20.527Z,42.4
2017-10-05T05:16:29.538Z,42.21
2017-10-05T05:17:39.194Z,42.49
2017-10-05T05:18:48.521Z,42.21
2017-10-05T05:19:57.539Z,41.82
2017-10-05T05:21:06.872Z,42.21
2017-10-05T05:22:15.887Z,42.4
2017-10-05T05:23:24.580Z,42.49
2017-10-05T05:24:33.278Z,42.02
2017-10-05T05:25:42.613Z,42.3
2017-10-05T05:26:51.939Z,42.88
2017-10-05T05:28:00.960Z,42.21
2017-10-05T05:29:09.969Z,42.69
2017-10-05T05:30:18.661Z,42.88
2017-10-05T05:31:27.993Z,42.59
2017-10-05T05:32:37.330Z,42.3
2017-10-05T05:33:46.022Z,42.49
2017-10-05T05:34:55.356Z,42.11
2017-10-05T05:36:04.364Z,42.49
2017-10-05T05:37:13.378Z,42.21
2017-10-05T05:38:23.025Z,42.21
2017-10-05T05:39:32.043Z,42.11
2017-10-05T05:40:40.739Z,42.3
2017-10-05T05:41:50.079Z,42.3
2017-10-05T05:42:59.095Z,42.4
2017-10-05T05:44:08.110Z,42.49
2017-10-05T05:45:17.445Z,42.3
2017-10-05T05:46:27.426Z,42.4
2017-10-05T05:47:36.439Z,42.4
2017-10-05T05:48:45.129Z,42.49
2017-10-05T05:49:53.820Z,42.59
2017-10-05T05:51:03.491Z,42.3
2017-10-05T05:52:12.500Z,42.59
2017-10-05T05:53:21.517Z,42.49
2017-10-05T05:54:30.210Z,42.4
2017-10-05T05:55:39.549Z,42.49
2017-10-05T05:56:49.519Z,42.49
2017-10-05T05:57:58.530Z,42.4
2017-10-05T05:59:08.194Z,42.21
2017-10-05T06:00:17.529Z,42.21
2017-10-05T06:01:26.546Z,42.21
2017-10-05T06:02:35.877Z,42.11
2017-10-05T06:03:44.887Z,42.21
2017-10-05T06:04:54.218Z,42.3
2017-10-05T06:06:03.233Z,42.21
2017-10-05T06:07:12.248Z,41.92
2017-10-05T06:08:21.579Z,42.02
2017-10-05T06:09:30.273Z,42.3
2017-10-05T06:10:39.286Z,42.11
2017-10-05T06:11:48.296Z,42.02
2017-10-05T06:12:57.950Z,41.92
2017-10-05T06:14:07.642Z,42.02
2017-10-05T06:15:16.980Z,42.11
2017-10-05T06:16:26.308Z,42.02
2017-10-05T06:17:35.321Z,42.3
2017-10-05T06:18:44.343Z,41.92
2017-10-05T06:19:53.685Z,41.92
2017-10-05T06:21:03.663Z,41.82
2017-10-05T06:22:12.677Z,42.02
2017-10-05T06:23:22.334Z,41.82
2017-10-05T06:24:31.057Z,42.02
2017-10-05T06:25:40.083Z,41.92
2017-10-05T06:26:48.775Z,41.92
2017-10-05T06:27:57.799Z,41.92
2017-10-05T06:29:06.816Z,41.82
2017-10-05T06:30:16.153Z,41.92
2017-10-05T06:31:25.494Z,42.02
2017-10-05T06:32:34.505Z,41.92
2017-10-05T06:33:43.844Z,41.92
2017-10-05T06:34:52.540Z,41.72
2017-10-05T06:36:01.243Z,41.92
2017-10-05T06:37:09.940Z,41.92
2017-10-05T06:38:19.269Z,42.02
2017-10-05T06:39:28.920Z,42.02
2017-10-05T06:40:37.930Z,41.92
2017-10-05T06:41:46.943Z,41.72
2017-10-05T06:42:55.956Z,41.82
2017-10-05T06:44:04.971Z,41.92
2017-10-05T06:45:14.310Z,41.72
2017-10-05T06:46:23.651Z,41.44
2017-10-05T06:47:33.303Z,41.72
2017-10-05T06:48:41.998Z,41.72
2017-10-05T06:49:51.009Z,41.82
2017-10-05T06:51:00.340Z,41.72
2017-10-05T06:52:09.354Z,41.82
2017-10-05T06:53:18.363Z,41.63
2017-10-05T06:54:27.700Z,41.72
2017-10-05T06:55:37.351Z,41.82
2017-10-05T06:56:46.048Z,41.72
2017-10-05T06:57:55.381Z,41.63
2017-10-05T06:59:04.400Z,41.63
2017-10-05T07:00:13.414Z,41.72
2017-10-05T07:01:22.426Z,41.92
2017-10-05T07:02:31.120Z,41.72
2017-10-05T07:03:40.450Z,41.92
2017-10-05T07:04:50.422Z,41.72
2017-10-05T07:05:59.440Z,41.63
2017-10-05T07:07:08.773Z,41.63
2017-10-05T07:08:18.425Z,41.63
2017-10-05T07:09:27.443Z,41.72
2017-10-05T07:10:36.453Z,41.72
2017-10-05T07:11:45.148Z,41.72
2017-10-05T07:12:54.488Z,41.63
2017-10-05T07:14:03.825Z,41.72
2017-10-05T07:15:12.518Z,41.72
2017-10-05T07:16:21.858Z,41.63
2017-10-05T07:17:30.551Z,41.72
2017-10-05T07:18:39.573Z,41.63
2017-10-05T07:19:48.898Z,41.72
2017-10-05T07:20:58.239Z,41.75
2017-10-05T07:22:07.251Z,41.63
2017-10-05T07:23:16.264Z,41.72
2017-10-05T07:24:25.614Z,42.03
2017-10-05T07:25:34.656Z,41.65
2017-10-05T07:26:43.989Z,41.72
2017-10-05T07:27:52.681Z,41.84
2017-10-05T07:29:01.692Z,41.84
2017-10-05T07:30:11.349Z,42.03
2017-10-05T07:31:21.008Z,41.82
2017-10-05T07:32:30.023Z,41.63
2017-10-05T07:33:39.036Z,42.02
2017-10-05T07:34:48.364Z,41.65
2017-10-05T07:35:57.054Z,42.03
2017-10-05T07:37:06.064Z,41.94
2017-10-05T07:38:15.078Z,41.65
2017-10-05T07:39:24.091Z,41.72
2017-10-05T07:40:33.425Z,41.75
2017-10-05T07:41:42.758Z,41.65
2017-10-05T07:42:51.768Z,41.65
2017-10-05T07:44:00.782Z,41.72
2017-10-05T07:45:10.116Z,41.55
2017-10-05T07:46:19.456Z,41.63
2017-10-05T07:47:28.155Z,41.94
2017-10-05T07:48:37.169Z,41.75
2017-10-05T07:49:46.181Z,41.75
2017-10-05T07:50:55.196Z,42.03
2017-10-05T07:52:03.890Z,41.65
2017-10-05T07:53:13.224Z,41.94
2017-10-05T07:54:22.236Z,41.75
2017-10-05T07:55:32.200Z,41.84
2017-10-05T07:56:41.552Z,41.84
2017-10-05T07:57:50.557Z,41.65
2017-10-05T07:58:59.254Z,41.55
2017-10-05T08:00:08.609Z,41.84
2017-10-05T08:01:17.603Z,41.84
2017-10-05T08:02:27.017Z,41.94
2017-10-05T08:03:36.354Z,41.84
2017-10-05T08:04:45.047Z,41.84
2017-10-05T08:05:54.065Z,41.75
2017-10-05T08:07:02.762Z,41.84
2017-10-05T08:08:11.462Z,41.84
2017-10-05T08:09:20.485Z,41.75
2017-10-05T08:10:29.504Z,41.65
2017-10-05T08:11:39.162Z,41.65
2017-10-05T08:12:48.180Z,41.65
2017-10-05T08:13:56.876Z,41.65
2017-10-05T08:15:05.894Z,41.84
2017-10-05T08:16:15.556Z,41.75
2017-10-05T08:17:24.889Z,41.46
2017-10-05T08:18:33.901Z,41.94
2017-10-05T08:19:43.234Z,41.65
2017-10-05T08:20:52.253Z,41.75
2017-10-05T08:22:00.952Z,41.75
2017-10-05T08:23:10.285Z,41.65
2017-10-05T08:24:19.299Z,42.13
2017-10-05T08:25:28.660Z,42.03
2017-10-05T08:26:37.676Z,41.46
2017-10-05T08:27:47.007Z,41.65
2017-10-05T08:28:56.021Z,41.84
2017-10-05T08:30:05.673Z,41.75
2017-10-05T08:31:15.007Z,41.55
2017-10-05T08:32:24.658Z,41.94
2017-10-05T08:33:33.667Z,41.65
2017-10-05T08:34:42.999Z,41.65
2017-10-05T08:35:51.695Z,41.27
2017-10-05T08:37:01.025Z,41.55
2017-10-05T08:38:09.719Z,41.65
2017-10-05T08:39:19.053Z,41.65
2017-10-05T08:40:28.070Z,41.65
2017-10-05T08:41:37.400Z,41.75
2017-10-05T08:42:46.452Z,41.65
2017-10-05T08:43:55.785Z,41.65
2017-10-05T08:45:04.805Z,41.94
2017-10-05T08:46:14.138Z,41.65
2017-10-05T08:47:23.796Z,41.65
2017-10-05T08:48:33.443Z,41.75
2017-10-05T08:49:42.137Z,41.75
2017-10-05T08:50:51.473Z,41.75
2017-10-05T08:52:00.169Z,41.65
2017-10-05T08:53:09.510Z,41.75
2017-10-05T08:54:19.161Z,41.55
2017-10-05T08:55:28.493Z,41.65
2017-10-05T08:56:38.464Z,41.75
2017-10-05T08:57:47.484Z,41.84
2017-10-05T08:58:56.820Z,41.94
2017-10-05T09:00:05.837Z,41.94
2017-10-05T09:01:14.852Z,41.65
2017-10-05T09:02:23.863Z,41.94
2017-10-05T09:03:33.198Z,41.55
2017-10-05T09:04:42.523Z,41.75
2017-10-05T09:05:51.535Z,41.75
2017-10-05T09:07:00.235Z,41.65
2017-10-05T09:08:09.254Z,41.75
2017-10-05T09:09:17.945Z,41.75
2017-10-05T09:10:27.273Z,41.75
2017-10-05T09:11:36.929Z,41.65
2017-10-05T09:12:45.947Z,41.84
2017-10-05T09:13:55.283Z,41.84
2017-10-05T09:15:04.300Z,41.75
2017-10-05T09:16:13.310Z,41.75
2017-10-05T09:17:22.328Z,41.84
2017-10-05T09:18:31.342Z,41.84
2017-10-05T09:19:40.037Z,41.75
2017-10-05T09:20:49.057Z,41.75
2017-10-05T09:21:58.390Z,42.03
2017-10-05T09:23:07.727Z,42.13
2017-10-05T09:24:16.738Z,41.84
2017-10-05T09:25:25.434Z,41.94
2017-10-05T09:26:34.764Z,41.94
2017-10-05T09:27:43.776Z,42.13
2017-10-05T09:28:52.796Z,42.03
2017-10-05T09:30:01.492Z,41.94
2017-10-05T09:31:10.196Z,42.13
2017-10-05T09:32:18.895Z,41.94
2017-10-05T09:33:28.231Z,42.13
2017-10-05T09:34:37.247Z,42.03
2017-10-05T09:35:46.587Z,42.32
2017-10-05T09:36:55.605Z,42.23
2017-10-05T09:38:05.260Z,42.03
2017-10-05T09:39:14.277Z,42.03
2017-10-05T09:40:23.611Z,42.13
2017-10-05T09:41:32.947Z,42.13
2017-10-05T09:42:41.959Z,42.03
2017-10-05T09:43:51.293Z,42.13
2017-10-05T09:45:00.627Z,42.32
2017-10-05T09:46:09.321Z,42.03
2017-10-05T09:47:18.649Z,42.03
2017-10-05T09:48:27.659Z,42.03
2017-10-05T09:49:36.356Z,42.23
2017-10-05T09:50:45.368Z,42.42
2017-10-05T09:51:55.019Z,42.13
2017-10-05T09:53:03.715Z,42.13
2017-10-05T09:54:12.409Z,41.94
2017-10-05T09:55:21.102Z,42.13
2017-10-05T09:56:29.805Z,42.03
2017-10-05T09:57:39.461Z,42.13
2017-10-05T09:58:48.158Z,42.42
2017-10-05T09:59:57.490Z,42.13
2017-10-05T10:01:06.184Z,42.13
2017-10-05T10:02:15.517Z,42.52
2017-10-05T10:03:24.209Z,42.52
2017-10-05T10:04:33.224Z,42.52
2017-10-05T10:05:42.872Z,42.52
2017-10-05T10:06:51.884Z,42.52
2017-10-05T10:08:01.211Z,42.42
2017-10-05T10:09:09.907Z,42.42
2017-10-05T10:10:18.918Z,42.32
2017-10-05T10:11:28.573Z,42.52
2017-10-05T10:12:38.218Z,42.32
2017-10-05T10:13:47.549Z,42.42
2017-10-05T10:14:56.965Z,42.32
2017-10-05T10:16:05.983Z,42.52
2017-10-05T10:17:14.994Z,42.32
2017-10-05T10:18:24.010Z,42.32
2017-10-05T10:19:33.348Z,42.32
2017-10-05T10:20:42.356Z,42.52
2017-10-05T10:21:51.366Z,42.52
2017-10-05T10:23:00.693Z,42.52
2017-10-05T10:24:10.023Z,42.32
2017-10-05T10:25:19.033Z,42.42
2017-10-05T10:26:28.368Z,42.42
2017-10-05T10:27:37.056Z,42.42
2017-10-05T10:28:46.418Z,42.52
2017-10-05T10:29:55.755Z,42.52
2017-10-05T10:31:05.411Z,42.13
2017-10-05T10:32:14.421Z,42.42
2017-10-05T10:33:23.115Z,42.42
2017-10-05T10:34:32.132Z,42.13
2017-10-05T10:35:41.147Z,42.42
2017-10-05T10:36:49.840Z,42.52
2017-10-05T10:37:58.852Z,42.32
2017-10-05T10:39:07.871Z,42.32
2017-10-05T10:40:16.932Z,42.52
2017-10-05T10:41:25.946Z,42.52
2017-10-05T10:42:34.640Z,42.32
2017-10-05T10:43:44.287Z,42.42
2017-10-05T10:44:52.986Z,42.52
2017-10-05T10:46:02.312Z,42.52
2017-10-05T10:47:11.639Z,42.52
2017-10-05T10:48:20.657Z,42.42
2017-10-05T10:49:29.352Z,42.52
2017-10-05T10:50:38.697Z,42.42
2017-10-05T10:51:47.707Z,42.42
2017-10-05T10:52:56.398Z,42.71
2017-10-05T10:54:05.094Z,42.61
2017-10-05T10:55:14.110Z,42.42
2017-10-05T10:56:23.438Z,42.52
2017-10-05T10:57:32.454Z,42.52
2017-10-05T10:58:41.468Z,42.42
2017-10-05T10:59:50.800Z,42.42
2017-10-05T11:01:00.140Z,42.42
2017-10-05T11:02:09.152Z,42.42
2017-10-05T11:03:17.845Z,42.42
2017-10-05T11:04:27.172Z,42.52
2017-10-05T11:05:35.864Z,42.54
2017-10-05T11:06:44.881Z,42.54
2017-10-05T11:07:53.896Z,42.54
2017-10-05T11:09:02.906Z,42.25
2017-10-05T11:10:11.920Z,42.25
2017-10-05T11:11:20.951Z,42.15
2017-10-05T11:12:29.942Z,41.96
2017-10-05T11:13:38.956Z,42.05
2017-10-05T11:14:47.651Z,41.77
2017-10-05T11:15:57.620Z,41.57
2017-10-05T11:17:07.276Z,41.77
2017-10-05T11:18:15.970Z,41.67
2017-10-05T11:19:24.664Z,41.57
2017-10-05T11:20:33.677Z,41.57
2017-10-05T11:21:42.695Z,41.57
2017-10-05T11:22:51.396Z,42.05
2017-10-05T11:24:01.049Z,41.38
2017-10-05T11:25:09.741Z,41.57
2017-10-05T11:26:19.403Z,42.05
2017-10-05T11:27:28.416Z,41.86
2017-10-05T11:28:37.746Z,41.09
2017-10-05T11:29:47.084Z,41.09
2017-10-05T11:30:56.106Z,41.19
2017-10-05T11:32:05.120Z,41.19
2017-10-05T11:33:14.134Z,41.19
2017-10-05T11:34:23.143Z,41.77
2017-10-05T11:35:32.173Z,41.11
2017-10-05T11:36:40.867Z,40.24
2017-10-05T11:37:49.880Z,39.87
2017-10-05T11:38:59.528Z,39.49
2017-10-05T11:40:09.183Z,39.7
2017-10-05T11:41:18.521Z,39.51
2017-10-05T11:42:28.179Z,39.59
2017-10-05T11:43:37.192Z,39.61
2017-10-05T11:44:46.207Z,39.59
2017-10-05T11:45:55.224Z,39.49
2017-10-05T11:47:04.237Z,39.59
2017-10-05T11:48:12.933Z,39.78
2017-10-05T11:49:21.949Z,39.8
2017-10-05T11:50:30.965Z,39.69
2017-10-05T11:51:40.303Z,39.41
2017-10-05T11:52:48.998Z,39.41
2017-10-05T11:53:58.011Z,39.32
2017-10-05T11:55:07.026Z,39.12
2017-10-05T11:56:15.720Z,39.03
2017-10-05T11:57:25.059Z,38.83
2017-10-05T11:58:34.708Z,38.83
2017-10-05T11:59:43.724Z,38.74
2017-10-05T12:00:53.394Z,39.12
2017-10-05T12:02:02.425Z,39.41
2017-10-05T12:03:12.077Z,39.32
2017-10-05T12:04:20.776Z,39.7
2017-10-05T12:05:30.110Z,39.51
2017-10-05T12:06:39.764Z,39.8
2017-10-05T12:07:48.462Z,40.19
2017-10-05T12:08:57.790Z,40.57
2017-10-05T12:10:06.801Z,40.96
2017-10-05T12:11:15.503Z,40.38
2017-10-05T12:12:25.155Z,40.38
2017-10-05T12:13:33.852Z,40.67
2017-10-05T12:14:42.552Z,40.45
2017-10-05T12:15:51.569Z,40.84
2017-10-05T12:17:00.590Z,40.94
2017-10-05T12:18:09.610Z,41.52
2017-10-05T12:19:18.300Z,41.91
2017-10-05T12:20:27.637Z,41.13
2017-10-05T12:21:36.982Z,41.13
2017-10-05T12:22:46.316Z,42
2017-10-05T12:23:55.013Z,42
2017-10-05T12:25:04.032Z,42
2017-10-05T12:26:13.048Z,42
2017-10-05T12:27:22.065Z,42.18
2017-10-05T12:28:31.402Z,42.1
2017-10-05T12:29:40.417Z,42.48
2017-10-05T12:30:49.434Z,42.36
2017-10-05T12:31:59.089Z,42.66
2017-10-05T12:33:08.102Z,42.56
2017-10-05T12:34:17.758Z,41.98
2017-10-05T12:35:27.095Z,41.33
2017-10-05T12:36:36.428Z,42.1
2017-10-05T12:37:45.449Z,41.61
2017-10-05T12:38:54.787Z,41.61
2017-10-05T12:40:03.485Z,41.13
2017-10-05T12:41:12.521Z,41.33
2017-10-05T12:42:21.547Z,41.33
2017-10-05T12:43:30.882Z,41.33
2017-10-05T12:44:39.576Z,41.23
2017-10-05T12:45:48.594Z,41.33
2017-10-05T12:46:57.930Z,41.54
2017-10-05T12:48:07.261Z,41.15
2017-10-05T12:49:16.592Z,40.77
2017-10-05T12:50:25.288Z,40.96
2017-10-05T12:51:34.306Z,40.86
2017-10-05T12:52:43.646Z,40.77
2017-10-05T12:53:52.662Z,41.15
2017-10-05T12:55:01.993Z,40.38
2017-10-05T12:56:11.009Z,40.96
2017-10-05T12:57:19.733Z,41.35
2017-10-05T12:58:28.759Z,41.35
2017-10-05T12:59:38.412Z,40.96
2017-10-05T13:00:47.107Z,41.05
2017-10-05T13:01:56.118Z,40.86
2017-10-05T13:03:05.773Z,41.05
2017-10-05T13:04:14.790Z,40.96
2017-10-05T13:05:23.806Z,41.25
2017-10-05T13:06:33.465Z,41.15
2017-10-05T13:07:42.795Z,40.86
2017-10-05T13:08:51.811Z,40.67
2017-10-05T13:10:01.141Z,40.77
2017-10-05T13:11:09.838Z,40.96
2017-10-05T13:12:19.167Z,40.77
2017-10-05T13:13:29.140Z,41.15
2017-10-05T13:14:37.837Z,41.35
2017-10-05T13:15:46.846Z,40.86
2017-10-05T13:16:55.861Z,40.84
2017-10-05T13:18:04.559Z,40.96
2017-10-05T13:19:13.257Z,41.25
2017-10-05T13:20:22.277Z,40.84
2017-10-05T13:21:31.615Z,41.13
2017-10-05T13:22:41.267Z,41.23
2017-10-05T13:23:50.916Z,41.42
2017-10-05T13:24:59.934Z,41.13
2017-10-05T13:26:08.955Z,41.42
2017-10-05T13:27:17.973Z,41.81
2017-10-05T13:28:26.976Z,41.33
2017-10-05T13:29:36.633Z,41.23
2017-10-05T13:30:45.653Z,41.33
2017-10-05T13:31:54.667Z,41.33
2017-10-05T13:33:03.682Z,41.23
2017-10-05T13:34:12.694Z,42
2017-10-05T13:35:22.032Z,41.71
2017-10-05T13:36:30.730Z,41.52
2017-10-05T13:37:39.739Z,41.42
2017-10-05T13:38:48.755Z,41.33
2017-10-05T13:39:57.451Z,41.61
2017-10-05T13:41:06.148Z,41.42
2017-10-05T13:42:15.806Z,41.61
2017-10-05T13:43:24.821Z,41.61
2017-10-05T13:44:33.518Z,41.23
2017-10-05T13:45:42.532Z,41.42
2017-10-05T13:46:51.229Z,41.23
2017-10-05T13:48:00.563Z,41.23
2017-10-05T13:49:09.900Z,40.77
2017-10-05T13:50:19.553Z,41.25
2017-10-05T13:51:28.885Z,41.23
2017-10-05T13:52:38.540Z,41.03
2017-10-05T13:53:47.871Z,41.61
2017-10-05T13:54:57.522Z,41.42
2017-10-05T13:56:06.857Z,41.63
2017-10-05T13:57:15.874Z,41.23
2017-10-05T13:58:25.208Z,40.96
2017-10-05T13:59:34.549Z,41.03
2017-10-05T14:00:43.878Z,41.15
2017-10-05T14:01:53.211Z,40.94
2017-10-05T14:03:01.909Z,41.13
2017-10-05T14:04:10.926Z,40.75
2017-10-05T14:05:19.624Z,41.44
2017-10-05T14:06:28.957Z,41.71
2017-10-05T14:07:38.286Z,41.13
2017-10-05T14:08:47.310Z,41.61
2017-10-05T14:09:56.647Z,41.61
2017-10-05T14:11:06.639Z,41.61
2017-10-05T14:12:15.975Z,41.03
2017-10-05T14:13:24.999Z,41.61
2017-10-05T14:14:33.697Z,41.42
2017-10-05T14:15:43.028Z,41.61
2017-10-05T14:16:52.048Z,41.63
2017-10-05T14:18:01.060Z,41.63
2017-10-05T14:19:10.074Z,41.25
2017-10-05T14:20:18.770Z,41.13
2017-10-05T14:21:27.783Z,41.61
2017-10-05T14:22:36.480Z,41.23
2017-10-05T14:23:46.141Z,41.52
2017-10-05T14:24:55.151Z,41.54
2017-10-05T14:26:04.482Z,41.33
2017-10-05T14:27:13.819Z,41.25
2017-10-05T14:28:22.514Z,41.42
2017-10-05T14:29:31.212Z,41.23
2017-10-05T14:30:41.186Z,41.23
2017-10-05T14:31:50.527Z,41.35
2017-10-05T14:32:59.856Z,41.52
2017-10-05T14:34:08.550Z,41.52
2017-10-05T14:35:17.564Z,41.13
2017-10-05T14:36:26.578Z,41.23
2017-10-05T14:37:35.587Z,40.65
2017-10-05T14:38:44.599Z,41.05
2017-10-05T14:39:53.937Z,40.94
2017-10-05T14:41:02.640Z,40.94
2017-10-05T14:42:12.289Z,40.96
2017-10-05T14:43:21.623Z,40.94
2017-10-05T14:44:30.639Z,40.84
2017-10-05T14:45:39.655Z,41.13
2017-10-05T14:46:48.353Z,40.84
2017-10-05T14:47:57.690Z,40.84
2017-10-05T14:49:06.706Z,41.52
2017-10-05T14:50:15.403Z,40.84
2017-10-05T14:51:24.095Z,40.94
2017-10-05T14:52:33.107Z,40.94